Time;durP1;ratioP1;P1;durP2;ratioP2;P2;SDS_P1;SDS_P2;PMS_P1;PMS_P2;Temp;Humidity;BMP_temperature;BMP_pressure;BME280_temperature;BME280_humidity;BME280_pressure;Samples;Min_cycle;Max_cycle;Signal;HPM_P1;HPM_P2
2022/04/27 00:01:17;;;;;;;19.90;7.70;;;3.10;99.90;;;;;;5032546;28;20038;-87
2022/04/27 00:03:43;;;;;;;15.00;8.00;;;3.10;99.90;;;;;;5032390;28;20037;-87
2022/04/27 00:06:09;;;;;;;16.93;8.00;;;3.10;99.90;;;;;;5014417;28;20470;-87
2022/04/27 00:08:35;;;;;;;17.80;7.87;;;3.10;99.90;;;;;;5014913;28;20037;-87
2022/04/27 00:11:01;;;;;;;17.90;8.00;;;3.10;99.90;;;;;;5032610;28;20041;-87
2022/04/27 00:13:26;;;;;;;16.30;7.50;;;3.00;99.90;;;;;;5032552;28;20038;-87
2022/04/27 00:15:52;;;;;;;15.37;7.83;;;3.10;99.90;;;;;;5015155;28;20052;-87
2022/04/27 00:18:18;;;;;;;17.93;7.50;;;3.00;99.90;;;;;;5014970;28;20041;-86
2022/04/27 00:20:43;;;;;;;15.13;7.90;;;3.00;99.90;;;;;;5013608;28;20080;-87
2022/04/27 00:23:09;;;;;;;17.50;7.87;;;3.00;99.90;;;;;;5032783;28;20125;-87
2022/04/27 00:25:35;;;;;;;15.73;7.90;;;3.00;99.90;;;;;;5032646;28;20386;-86
2022/04/27 00:28:01;;;;;;;15.40;7.50;;;3.00;99.90;;;;;;5031081;28;20517;-87
2022/04/27 00:30:26;;;;;;;16.67;7.73;;;3.00;99.90;;;;;;5014373;28;20050;-87
2022/04/27 00:32:52;;;;;;;14.57;7.37;;;2.90;99.90;;;;;;5014433;28;20072;-86
2022/04/27 00:35:17;;;;;;;17.57;8.20;;;3.00;99.90;;;;;;5031809;28;20038;-87
2022/04/27 00:37:43;;;;;;;15.53;7.90;;;2.80;99.90;;;;;;5032476;28;20107;-87
2022/04/27 00:40:09;;;;;;;15.83;7.67;;;2.80;99.90;;;;;;5032754;28;20091;-86
2022/04/27 00:42:35;;;;;;;18.60;8.20;;;2.70;99.90;;;;;;5031437;28;20048;-86
2022/04/27 00:45:02;;;;;;;18.43;8.27;;;2.80;99.90;;;;;;5014230;28;20045;-86
2022/04/27 00:47:30;;;;;;;15.93;7.90;;;2.70;99.90;;;;;;5014717;28;20092;-86
2022/04/27 00:49:57;;;;;;;16.80;7.80;;;2.70;99.90;;;;;;5031002;28;20067;-86
2022/04/27 00:52:24;;;;;;;18.67;7.70;;;2.70;99.90;;;;;;5015058;28;20048;-86
2022/04/27 00:54:55;;;;;;;16.00;7.70;;;2.70;99.90;;;;;;5014679;28;20037;-86
2022/04/27 00:57:23;;;;;;;16.43;7.57;;;2.70;99.90;;;;;;5031716;28;20042;-86
2022/04/27 00:59:49;;;;;;;15.53;7.03;;;2.60;99.90;;;;;;5033097;28;20037;-86
2022/04/27 01:02:16;;;;;;;15.70;8.30;;;2.60;99.90;;;;;;5017440;28;20374;-86
2022/04/27 01:04:42;;;;;;;14.63;7.10;;;2.50;99.90;;;;;;5017735;28;20236;-86
2022/04/27 01:07:11;;;;;;;14.50;7.30;;;2.60;99.90;;;;;;5017938;28;20037;-86
2022/04/27 01:09:37;;;;;;;15.67;7.90;;;2.40;99.90;;;;;;5034875;28;20046;-86
2022/04/27 01:12:04;;;;;;;20.20;8.50;;;2.40;99.90;;;;;;5034925;28;20040;-86
2022/04/27 01:14:43;;;;;;;15.47;7.70;;;2.40;99.90;;;;;;5017766;28;20123;-86
2022/04/27 01:17:09;;;;;;;16.33;7.77;;;2.40;99.90;;;;;;5016825;28;20436;-86
2022/04/27 01:19:36;;;;;;;17.87;8.00;;;2.30;99.90;;;;;;5018047;28;20042;-86
2022/04/27 01:22:03;;;;;;;17.70;7.20;;;2.30;99.90;;;;;;5035221;28;20049;-85
2022/04/27 01:24:30;;;;;;;16.13;8.33;;;2.20;99.90;;;;;;5020253;28;20075;-86
2022/04/27 01:26:56;;;;;;;15.37;7.37;;;2.20;99.90;;;;;;5017619;28;20045;-86
2022/04/27 01:29:22;;;;;;;16.67;7.50;;;2.10;99.90;;;;;;5017432;28;20095;-86
2022/04/27 01:31:50;;;;;;;15.50;7.60;;;2.10;99.90;;;;;;5035569;28;20045;-86
2022/04/27 01:34:16;;;;;;;15.77;7.60;;;2.20;99.90;;;;;;5017598;28;20056;-86
2022/04/27 01:36:41;;;;;;;15.40;7.67;;;2.00;99.90;;;;;;5017358;28;20045;-86
2022/04/27 01:39:07;;;;;;;14.53;7.40;;;2.40;99.90;;;;;;5016639;28;20094;-86
2022/04/27 01:41:34;;;;;;;16.30;7.63;;;2.20;99.90;;;;;;5034835;28;20132;-86
2022/04/27 01:44:00;;;;;;;16.97;8.20;;;1.90;99.90;;;;;;5034503;28;20508;-86
2022/04/27 01:46:27;;;;;;;18.23;7.90;;;1.90;99.90;;;;;;5034631;28;20095;-86
2022/04/27 01:48:53;;;;;;;19.53;8.07;;;1.90;99.90;;;;;;5017122;28;20049;-86
2022/04/27 01:54:14;;;;;;;18.10;8.53;;;1.90;99.90;;;;;;5017039;28;20045;-86
2022/04/27 01:54:17;;;;;;;16.87;8.00;;;1.80;99.90;;;;;;5016805;28;20048;-86
2022/04/27 01:56:47;;;;;;;17.67;7.70;;;1.80;99.90;;;;;;5034733;28;20397;-86
2022/04/27 01:59:13;;;;;;;17.30;7.70;;;1.80;99.90;;;;;;5016302;28;20090;-86
2022/04/27 02:01:40;;;;;;;15.00;7.70;;;2.10;99.90;;;;;;5026114;28;20041;-86
2022/04/27 02:04:06;;;;;;;18.87;8.20;;;1.70;99.90;;;;;;5034476;28;20146;-86
2022/04/27 02:06:35;;;;;;;17.13;8.00;;;1.70;99.90;;;;;;5033346;28;20540;-86
2022/04/27 02:09:05;;;;;;;18.80;8.73;;;1.70;99.90;;;;;;5016505;28;20045;-86
2022/04/27 02:11:31;;;;;;;16.43;8.10;;;1.70;99.90;;;;;;5033583;28;20049;-86
2022/04/27 02:13:57;;;;;;;18.73;8.93;;;1.90;99.90;;;;;;5033509;28;20171;-85
2022/04/27 02:16:24;;;;;;;17.43;8.30;;;2.10;99.90;;;;;;5016494;28;20131;-86
2022/04/27 02:18:50;;;;;;;15.30;8.17;;;1.50;99.90;;;;;;5016000;28;20042;-86
2022/04/27 02:21:16;;;;;;;15.60;8.00;;;1.50;99.90;;;;;;5015683;28;20064;-86
2022/04/27 02:23:43;;;;;;;18.27;8.83;;;1.50;99.90;;;;;;5034025;28;20046;-86
2022/04/27 02:26:09;;;;;;;15.87;8.03;;;1.50;99.90;;;;;;5016239;28;20037;-86
2022/04/27 02:28:34;;;;;;;18.23;8.03;;;1.40;99.90;;;;;;5015216;28;20508;-86
2022/04/27 02:31:00;;;;;;;20.20;9.13;;;1.40;99.90;;;;;;5034029;28;20056;-87
2022/04/27 02:33:25;;;;;;;21.13;10.00;;;1.40;99.90;;;;;;5034384;28;20045;-88
2022/04/27 02:35:51;;;;;;;19.13;10.07;;;2.10;99.90;;;;;;5033322;28;20096;-87
2022/04/27 02:38:16;;;;;;;18.97;9.17;;;2.40;99.90;;;;;;5016356;28;20049;-86
2022/04/27 02:40:42;;;;;;;19.77;8.90;;;1.50;99.90;;;;;;5033175;28;20430;-86
2022/04/27 02:43:07;;;;;;;18.73;8.87;;;1.50;99.90;;;;;;5034646;28;20452;-87
2022/04/27 02:45:33;;;;;;;19.87;9.00;;;1.40;99.90;;;;;;5016401;28;20451;-87
2022/04/27 02:47:58;;;;;;;19.90;9.13;;;1.40;99.90;;;;;;5032728;28;20075;-87
2022/04/27 02:53:08;;;;;;;22.42;11.38;;;2.30;99.90;;;;;;5016260;28;20045;-87
2022/04/27 02:55:34;;;;;;;17.60;8.00;;;1.40;99.90;;;;;;5033385;28;20048;-87
2022/04/27 02:57:59;;;;;;;17.83;8.50;;;1.40;99.90;;;;;;5033719;28;20045;-87
2022/04/27 03:00:25;;;;;;;19.37;9.00;;;1.60;99.90;;;;;;5015791;28;20037;-87
2022/04/27 03:02:51;;;;;;;18.27;8.37;;;1.40;99.90;;;;;;5015001;28;20448;-87
2022/04/27 03:05:17;;;;;;;18.70;8.17;;;1.40;99.90;;;;;;5016172;28;20133;-86
2022/04/27 03:07:42;;;;;;;19.40;8.50;;;1.30;99.90;;;;;;5015913;28;20413;-87
2022/04/27 03:10:08;;;;;;;19.00;8.70;;;1.30;99.90;;;;;;5014949;28;20175;-86
2022/04/27 03:12:37;;;;;;;16.57;8.57;;;1.30;99.90;;;;;;5015793;28;20041;-87
2022/04/27 03:15:03;;;;;;;20.67;8.87;;;1.30;99.90;;;;;;5033467;28;20052;-87
2022/04/27 03:17:29;;;;;;;15.93;8.27;;;1.30;99.90;;;;;;5032419;28;20611;-87
2022/04/27 03:19:54;;;;;;;19.67;9.27;;;1.30;99.90;;;;;;5032919;28;20143;-86
2022/04/27 03:22:22;;;;;;;20.30;9.20;;;1.30;99.90;;;;;;5018102;28;20050;-87
2022/04/27 03:24:47;;;;;;;19.53;9.30;;;1.30;99.90;;;;;;5032230;28;20041;-87
2022/04/27 03:27:13;;;;;;;19.60;9.33;;;1.30;99.90;;;;;;5033203;28;20052;-87
2022/04/27 03:29:38;;;;;;;19.90;9.57;;;1.30;99.90;;;;;;5032578;28;20053;-87
2022/04/27 03:32:04;;;;;;;18.97;9.67;;;1.30;99.90;;;;;;5014489;28;20088;-87
2022/04/27 03:34:30;;;;;;;20.83;10.07;;;1.30;99.90;;;;;;5033010;28;20041;-87
2022/04/27 03:36:56;;;;;;;18.30;9.87;;;1.30;99.90;;;;;;5031763;28;20037;-86
2022/04/27 03:39:21;;;;;;;19.13;9.50;;;1.40;99.90;;;;;;5033240;28;20045;-86
2022/04/27 03:41:47;;;;;;;18.07;9.03;;;1.40;99.90;;;;;;5032776;28;20049;-87
2022/04/27 03:44:12;;;;;;;22.13;9.90;;;2.30;99.90;;;;;;5032006;28;20069;-86
2022/04/27 03:46:38;;;;;;;21.77;10.50;;;2.20;99.90;;;;;;5015358;28;20505;-87
2022/04/27 03:49:03;;;;;;;20.83;9.60;;;1.40;99.90;;;;;;5015773;28;20448;-87
2022/04/27 03:51:29;;;;;;;21.13;10.07;;;1.90;99.90;;;;;;5032181;28;20041;-87
2022/04/27 03:53:55;;;;;;;23.13;10.20;;;1.50;99.90;;;;;;5015126;28;20128;-87
2022/04/27 03:56:20;;;;;;;20.10;11.20;;;1.50;99.90;;;;;;5015262;28;20481;-87
2022/04/27 03:58:46;;;;;;;20.30;9.80;;;1.50;99.90;;;;;;5031860;28;20048;-87
2022/04/27 04:01:11;;;;;;;19.70;10.70;;;1.60;99.90;;;;;;5023898;28;20049;-86
2022/04/27 04:03:37;;;;;;;19.57;9.93;;;1.60;99.90;;;;;;5044114;28;20096;-88
2022/04/27 04:06:02;;;;;;;22.20;10.50;;;1.60;99.90;;;;;;5031015;28;20560;-87
2022/04/27 04:08:28;;;;;;;25.37;9.90;;;2.50;99.90;;;;;;5015221;28;20404;-87
2022/04/27 04:10:53;;;;;;;20.27;9.90;;;1.60;99.90;;;;;;5014961;28;20046;-87
2022/04/27 04:13:20;;;;;;;21.80;9.93;;;2.30;99.90;;;;;;5031863;28;20052;-87
2022/04/27 04:15:46;;;;;;;21.80;10.40;;;1.70;99.90;;;;;;5014782;28;20041;-87
2022/04/27 04:18:12;;;;;;;20.83;9.70;;;1.80;99.90;;;;;;5015270;28;20042;-87
2022/04/27 04:20:37;;;;;;;21.50;10.47;;;2.10;99.90;;;;;;5031947;28;20088;-87
2022/04/27 04:23:03;;;;;;;20.63;10.20;;;1.80;99.90;;;;;;5032394;28;20049;-87
2022/04/27 04:28:31;;;;;;;25.75;10.77;;;2.20;99.90;;;;;;5013942;28;20061;-87
2022/04/27 04:31:01;;;;;;;21.83;11.27;;;2.00;99.90;;;;;;5014763;28;20049;-87
2022/04/27 04:33:28;;;;;;;23.73;11.50;;;2.00;99.90;;;;;;5032003;28;20080;-87
2022/04/27 04:35:55;;;;;;;21.97;10.50;;;2.10;99.90;;;;;;5036116;28;20131;-87
2022/04/27 04:38:21;;;;;;;24.37;11.40;;;2.10;99.90;;;;;;5018666;28;20053;-87
2022/04/27 04:40:47;;;;;;;20.67;10.90;;;2.20;99.90;;;;;;5034928;28;20451;-87
2022/04/27 04:43:12;;;;;;;24.63;12.23;;;2.30;99.90;;;;;;5018387;28;20095;-87
2022/04/27 04:45:41;;;;;;;22.17;10.97;;;2.30;99.90;;;;;;5036169;28;20108;-87
2022/04/27 04:48:08;;;;;;;23.27;11.03;;;2.40;99.90;;;;;;5017396;28;20454;-87
2022/04/27 04:50:35;;;;;;;24.10;10.73;;;2.40;99.90;;;;;;5018437;28;20045;-87
2022/04/27 04:53:00;;;;;;;25.80;10.80;;;2.50;99.90;;;;;;5018218;28;20355;-87
2022/04/27 04:55:26;;;;;;;20.23;10.40;;;2.60;99.90;;;;;;5017416;28;20191;-87
2022/04/27 04:57:51;;;;;;;22.63;11.10;;;2.70;99.90;;;;;;5017807;28;20382;-87
2022/04/27 05:00:17;;;;;;;21.80;11.57;;;2.70;99.90;;;;;;5017957;28;20076;-87
2022/04/27 05:02:44;;;;;;;24.03;11.20;;;2.80;99.90;;;;;;5035025;28;20381;-87
2022/04/27 05:05:10;;;;;;;24.20;11.70;;;2.90;99.90;;;;;;5038776;28;20564;-87
2022/04/27 05:07:35;;;;;;;19.73;10.73;;;3.00;99.90;;;;;;5017872;28;20065;-87
2022/04/27 05:10:01;;;;;;;21.70;10.27;;;3.00;99.90;;;;;;5016757;28;20441;-87
2022/04/27 05:12:27;;;;;;;23.80;11.63;;;3.10;99.90;;;;;;5038838;28;20089;-87
2022/04/27 05:14:53;;;;;;;21.07;10.70;;;3.20;99.90;;;;;;5035296;28;20041;-87
2022/04/27 05:17:19;;;;;;;21.10;11.10;;;3.30;99.90;;;;;;5035182;28;20044;-87
2022/04/27 05:19:45;;;;;;;21.33;11.03;;;3.40;99.90;;;;;;5017850;28;20540;-87
2022/04/27 05:22:10;;;;;;;22.00;11.33;;;4.10;99.90;;;;;;5035404;28;20432;-87
2022/04/27 05:24:36;;;;;;;23.13;11.10;;;3.70;99.90;;;;;;5017381;28;20080;-88
2022/04/27 05:27:02;;;;;;;22.37;10.93;;;3.70;99.90;;;;;;5017399;28;20393;-87
2022/04/27 05:32:12;;;;;;;19.98;10.32;;;3.90;99.90;;;;;;5017403;28;20057;-87
2022/04/27 05:34:38;;;;;;;20.60;10.30;;;4.10;99.90;;;;;;5017569;28;20132;-87
2022/04/27 05:37:04;;;;;;;20.63;10.50;;;4.20;99.90;;;;;;5034327;28;20416;-87
2022/04/27 05:39:30;;;;;;;20.20;9.90;;;4.30;99.90;;;;;;5035243;28;20045;-87
2022/04/27 05:41:56;;;;;;;22.50;10.30;;;4.50;99.90;;;;;;5035086;28;20124;-87
2022/04/27 05:44:34;;;;;;;22.50;11.23;;;4.60;99.90;;;;;;5039095;28;20089;-91
2022/04/27 05:47:00;;;;;;;19.73;10.93;;;4.80;99.90;;;;;;5026454;28;20077;-88
2022/04/27 05:49:26;;;;;;;22.27;11.40;;;4.80;99.90;;;;;;5018780;28;20096;-88
2022/04/27 05:51:51;;;;;;;21.67;10.67;;;5.00;99.90;;;;;;5023429;28;20416;-92
2022/04/27 05:54:24;;;;;;;20.43;10.63;;;5.10;99.90;;;;;;5051466;28;20084;-94
2022/04/27 05:56:50;;;;;;;20.90;9.60;;;5.10;99.90;;;;;;5032793;28;20051;-90
2022/04/27 05:59:17;;;;;;;16.40;9.30;;;5.40;99.90;;;;;;5058726;28;20029;-89
2022/04/27 06:05:26;;;;;;;16.03;8.57;;;5.80;99.90;;;;;;5046930;28;20044;-96
2022/04/27 06:07:52;;;;;;;18.57;8.47;;;5.80;99.90;;;;;;5041978;28;20059;-96
2022/04/27 06:10:18;;;;;;;16.20;8.43;;;6.80;99.90;;;;;;5041707;28;20092;-96
2022/04/27 06:12:49;;;;;;;18.60;8.00;;;6.10;99.90;;;;;;5042708;28;20542;-94
2022/04/27 06:15:17;;;;;;;16.67;7.90;;;6.40;99.90;;;;;;5023970;28;20079;-95
2022/04/27 06:17:46;;;;;;;16.03;6.80;;;6.60;99.90;;;;;;5022659;28;20049;-96
2022/04/27 06:20:11;;;;;;;15.93;7.17;;;6.90;99.90;;;;;;5020638;28;20045;-94
2022/04/27 06:22:37;;;;;;;16.80;7.07;;;7.70;99.90;;;;;;5021826;28;20045;-93
2022/04/27 06:25:04;;;;;;;19.70;6.50;;;6.10;99.90;;;;;;5020316;28;20041;-95
2022/04/27 06:27:30;;;;;;;12.63;6.20;;;7.00;99.90;;;;;;5019373;28;20045;-95
2022/04/27 06:30:10;;;;;;;13.50;5.80;;;7.80;99.90;;;;;;5021598;28;20500;-95
2022/04/27 06:32:36;;;;;;;12.23;5.97;;;7.20;99.90;;;;;;5021710;28;20465;-95
2022/04/27 06:35:06;;;;;;;17.90;6.20;;;7.10;99.90;;;;;;5036472;28;20045;-96
2022/04/27 06:37:34;;;;;;;11.70;6.20;;;7.40;99.90;;;;;;5020189;28;20041;-96
2022/04/27 06:40:13;;;;;;;;;;;;;;;;;;;;;
2022/04/27 06:43:11;;;;;;;11.30;5.43;;;7.50;99.90;;;;;;5021493;28;20053;-96
2022/04/27 06:45:43;;;;;;;11.33;4.90;;;7.70;99.90;;;;;;5019859;28;20048;-96
2022/04/27 06:48:08;;;;;;;36.37;20.03;;;7.30;99.90;;;;;;5036915;28;20149;-96
2022/04/27 06:50:38;;;;;;;55.43;40.07;;;8.20;99.90;;;;;;5036509;28;20045;-96
2022/04/27 06:53:04;;;;;;;14.67;6.90;;;7.60;99.90;;;;;;5023698;28;20109;-96
2022/04/27 06:55:56;;;;;;;16.02;8.10;;;7.80;99.90;;;;;;5048898;28;20021;-96
2022/04/27 06:58:22;;;;;;;18.10;10.73;;;8.60;99.90;;;;;;5054300;28;20382;-95
2022/04/27 07:00:48;;;;;;;21.48;15.80;;;8.10;99.90;;;;;;5023864;28;20056;-95
2022/04/27 07:03:13;;;;;;;16.10;6.45;;;8.60;99.90;;;;;;5039645;28;20052;-96
2022/04/27 07:05:40;;;;;;;16.40;9.77;;;8.60;99.90;;;;;;5051329;28;20049;-95
2022/04/27 07:08:25;;;;;;;15.15;8.65;;;8.00;99.90;;;;;;5026533;28;20124;-96
2022/04/27 07:11:05;;;;;;;21.70;11.63;;;8.30;99.90;;;;;;5000517;28;20749;-93
2022/04/27 07:13:37;;;;;;;13.75;6.78;;;8.00;99.90;;;;;;5019269;28;20522;-93
2022/04/27 07:16:06;;;;;;;24.25;16.10;;;8.60;99.90;;;;;;5036328;28;20069;-93
2022/04/27 07:18:32;;;;;;;16.23;6.85;;;8.50;99.90;;;;;;5035100;28;20044;-93
2022/04/27 07:21:08;;;;;;;14.48;6.85;;;8.40;99.90;;;;;;5016131;28;20556;-90
2022/04/27 07:23:37;;;;;;;17.35;9.05;;;8.10;99.90;;;;;;5029162;28;20061;-90
2022/04/27 07:26:05;;;;;;;16.90;6.43;;;9.30;99.90;;;;;;5044915;28;20396;-90
2022/04/27 07:28:30;;;;;;;17.35;6.72;;;8.20;99.90;;;;;;5042596;28;20049;-89
2022/04/27 07:30:56;;;;;;;15.60;6.25;;;8.50;99.90;;;;;;5041479;28;20052;-89
2022/04/27 07:33:23;;;;;;;12.98;4.78;;;8.60;99.90;;;;;;5043616;28;20480;-90
2022/04/27 07:35:49;;;;;;;14.07;5.15;;;8.60;99.90;;;;;;5024473;28;20072;-89
2022/04/27 07:38:15;;;;;;;11.63;4.25;;;8.90;99.90;;;;;;5034186;28;20045;-88
2022/04/27 07:40:41;;;;;;;13.38;4.43;;;8.80;99.90;;;;;;5015886;28;20124;-92
2022/04/27 07:43:22;;;;;;;10.55;4.63;;;8.90;99.90;;;;;;5017154;28;20164;-92
2022/04/27 07:46:09;;;;;;;12.18;3.90;;;8.90;99.90;;;;;;5036213;28;20595;-93
2022/04/27 07:48:37;;;;;;;9.65;4.30;;;9.60;99.90;;;;;;5034400;28;20049;-92
2022/04/27 07:51:06;;;;;;;9.13;3.70;;;9.40;99.90;;;;;;5034668;28;20400;-93
2022/04/27 07:53:47;;;;;;;11.95;4.18;;;9.90;99.90;;;;;;5060621;22;20049;-93
2022/04/27 07:56:16;;;;;;;11.02;4.28;;;9.30;99.90;;;;;;5014995;28;20041;-93
2022/04/27 07:58:41;;;;;;;12.68;5.05;;;9.40;99.90;;;;;;5032159;28;20105;-93
2022/04/27 08:01:07;;;;;;;9.70;3.60;;;9.40;99.90;;;;;;5031960;28;20100;-87
2022/04/27 08:03:33;;;;;;;10.00;3.80;;;9.60;99.90;;;;;;5031545;28;20556;-86
2022/04/27 08:06:01;;;;;;;11.85;4.30;;;9.70;99.90;;;;;;5031857;28;20052;-85
2022/04/27 08:08:27;;;;;;;12.57;3.90;;;9.70;99.90;;;;;;5029919;28;20038;-84
2022/04/27 08:10:52;;;;;;;10.70;3.75;;;9.70;99.90;;;;;;5020435;28;20049;-85
2022/04/27 08:13:18;;;;;;;9.13;3.25;;;9.80;99.90;;;;;;5015425;28;20054;-86
2022/04/27 08:15:44;;;;;;;8.75;3.17;;;9.70;99.90;;;;;;5016561;28;20049;-86
2022/04/27 08:18:10;;;;;;;10.23;3.63;;;9.80;99.90;;;;;;5016846;28;20042;-87
2022/04/27 08:23:29;;;;;;;10.25;4.22;;;9.90;99.90;;;;;;5016995;28;20075;-86
2022/04/27 08:25:58;;;;;;;11.93;4.30;;;10.00;99.90;;;;;;5015787;28;20119;-86
2022/04/27 08:28:24;;;;;;;11.50;3.90;;;10.10;99.90;;;;;;5016805;28;20053;-85
2022/04/27 08:30:50;;;;;;;9.80;3.60;;;10.20;99.90;;;;;;5019189;28;20400;-85
2022/04/27 08:33:17;;;;;;;9.13;3.05;;;10.50;99.90;;;;;;5027023;28;20036;-86
2022/04/27 08:35:43;;;;;;;7.63;3.05;;;10.50;99.90;;;;;;5033331;28;20053;-86
2022/04/27 08:38:10;;;;;;;9.73;3.63;;;10.60;99.90;;;;;;5032921;28;20041;-86
2022/04/27 08:40:37;;;;;;;8.98;3.22;;;10.70;99.90;;;;;;5033174;28;20053;-87
2022/04/27 08:43:03;;;;;;;9.73;2.90;;;10.80;99.90;;;;;;5034249;28;20104;-87
2022/04/27 08:45:30;;;;;;;9.57;3.30;;;10.90;99.90;;;;;;5032387;28;20537;-87
2022/04/27 08:47:56;;;;;;;9.50;3.05;;;11.00;99.90;;;;;;5033541;28;20056;-87
2022/04/27 08:50:23;;;;;;;8.85;3.55;;;11.00;99.90;;;;;;5034041;28;20136;-87
2022/04/27 08:52:50;;;;;;;11.82;4.70;;;11.00;99.90;;;;;;5034117;28;20128;-87
2022/04/27 08:55:17;;;;;;;12.02;4.82;;;11.90;99.90;;;;;;5033726;28;20049;-87
2022/04/27 08:57:44;;;;;;;12.57;4.90;;;11.00;99.90;;;;;;5035467;28;20045;-87
2022/04/27 09:00:13;;;;;;;8.68;3.08;;;10.90;99.90;;;;;;5034203;28;20037;-87
2022/04/27 09:02:38;;;;;;;8.10;3.22;;;10.80;99.90;;;;;;5033858;28;20088;-86
2022/04/27 09:05:05;;;;;;;10.98;4.00;;;10.80;99.90;;;;;;5030930;28;20073;-87
2022/04/27 09:07:43;;;;;;;11.20;2.80;;;11.30;99.90;;;;;;5033321;28;20049;-87
2022/04/27 09:10:11;;;;;;;9.52;2.80;;;10.90;99.90;;;;;;5031983;28;20485;-87
2022/04/27 09:13:02;;;;;;;9.48;2.55;;;10.80;99.90;;;;;;5033646;28;20393;-86
2022/04/27 09:15:28;;;;;;;9.93;2.80;;;10.80;99.90;;;;;;5032820;28;20073;-87
2022/04/27 09:20:47;;;;;;;10.05;3.20;;;10.90;99.90;;;;;;5028962;28;20813;-87
2022/04/27 09:23:26;;;;;;;9.70;2.67;;;10.90;99.90;;;;;;5032075;28;20037;-86
2022/04/27 09:25:57;;;;;;;8.85;2.80;;;10.80;99.90;;;;;;5032572;28;20137;-89
2022/04/27 09:28:29;;;;;;;9.00;3.03;;;10.90;99.90;;;;;;5029683;28;20041;-91
2022/04/27 09:30:56;;;;;;;7.50;2.95;;;10.90;99.90;;;;;;5033068;28;20054;-89
2022/04/27 09:33:32;;;;;;;8.75;2.90;;;10.90;99.90;;;;;;5032491;28;20046;-90
2022/04/27 09:35:59;;;;;;;9.80;3.22;;;11.60;99.90;;;;;;5034849;28;20424;-92
2022/04/27 09:38:24;;;;;;;7.95;2.90;;;11.00;99.90;;;;;;5032406;28;20876;-88
2022/04/27 09:40:57;;;;;;;8.43;3.22;;;11.00;99.90;;;;;;5030915;28;20164;-89
2022/04/27 09:43:44;;;;;;;9.10;3.30;;;11.10;99.90;;;;;;5028536;28;20103;-89
2022/04/27 09:46:24;;;;;;;7.85;2.90;;;11.20;99.90;;;;;;5030732;28;20037;-90
2022/04/27 09:49:08;;;;;;;9.73;3.45;;;11.30;99.90;;;;;;5030510;28;20060;-88
2022/04/27 09:51:35;;;;;;;9.67;3.33;;;11.30;99.90;;;;;;5029575;28;20132;-88
2022/04/27 09:54:02;;;;;;;10.15;3.72;;;11.30;99.90;;;;;;5031161;28;20048;-88
2022/04/27 09:56:38;;;;;;;11.48;3.85;;;11.30;99.90;;;;;;5030373;28;20116;-89
2022/04/27 09:59:08;;;;;;;10.75;3.42;;;11.40;99.90;;;;;;5032591;28;20049;-88
2022/04/27 10:01:35;;;;;;;10.38;3.42;;;11.30;99.90;;;;;;5032622;28;20493;-89
2022/04/27 10:04:04;;;;;;;8.98;3.50;;;11.40;99.90;;;;;;5032665;28;20076;-89
2022/04/27 10:06:34;;;;;;;8.18;3.20;;;11.40;99.90;;;;;;5027956;28;20041;-89
2022/04/27 10:09:02;;;;;;;7.72;3.08;;;11.50;99.90;;;;;;5031560;28;20473;-90
2022/04/27 10:11:29;;;;;;;9.25;3.38;;;11.50;99.90;;;;;;5013170;28;20124;-88
2022/04/27 10:13:57;;;;;;;8.23;3.05;;;11.50;99.90;;;;;;5032086;28;20092;-92
2022/04/27 10:16:26;;;;;;;8.05;3.15;;;11.90;99.90;;;;;;5032715;28;20038;-90
2022/04/27 10:18:52;;;;;;;9.15;3.13;;;11.50;99.90;;;;;;5031387;28;20147;-89
2022/04/27 10:21:43;;;;;;;10.45;3.75;;;11.60;99.90;;;;;;5014376;28;20552;-87
2022/04/27 10:24:09;;;;;;;9.18;3.47;;;11.70;99.90;;;;;;5022644;28;20045;-87
2022/04/27 10:26:35;;;;;;;9.07;3.13;;;11.70;99.90;;;;;;5032060;28;20042;-87
2022/04/27 10:29:06;;;;;;;9.82;3.20;;;11.80;99.90;;;;;;5031075;28;20040;-88
2022/04/27 10:31:40;;;;;;;7.80;3.10;;;11.80;99.90;;;;;;5031646;28;20044;-88
2022/04/27 10:34:26;;;;;;;8.57;3.63;;;12.00;99.90;;;;;;5032815;28;20400;-90
2022/04/27 10:36:54;;;;;;;9.65;3.20;;;12.10;99.90;;;;;;5031011;28;20107;-89
2022/04/27 10:39:22;;;;;;;9.30;3.30;;;12.20;99.90;;;;;;5032255;28;20033;-89
2022/04/27 10:41:58;;;;;;;10.15;3.42;;;12.40;99.90;;;;;;5030371;28;20045;-87
2022/04/27 10:44:48;;;;;;;9.63;3.03;;;12.40;99.90;;;;;;5032426;28;20493;-91
2022/04/27 10:47:21;;;;;;;8.40;2.97;;;12.60;99.90;;;;;;5032869;28;20520;-96
2022/04/27 10:50:28;;;;;;;8.63;3.25;;;12.80;99.90;;;;;;5038313;28;20042;-90
2022/04/27 10:52:55;;;;;;;8.77;3.10;;;12.80;99.90;;;;;;5032406;28;20132;-89
2022/04/27 10:55:33;;;;;;;9.23;3.30;;;12.70;99.90;;;;;;5028575;28;20081;-88
2022/04/27 10:58:11;;;;;;;10.18;3.40;;;12.60;99.90;;;;;;5033819;28;20053;-85
2022/04/27 11:01:03;;;;;;;8.15;3.00;;;12.50;99.90;;;;;;5032300;28;20053;-88
2022/04/27 11:03:35;;;;;;;8.93;3.42;;;12.60;99.90;;;;;;5033399;28;20083;-89
2022/04/27 11:06:03;;;;;;;8.63;3.30;;;12.60;99.90;;;;;;5033510;28;20396;-89
2022/04/27 11:09:01;;;;;;;7.43;3.03;;;12.60;99.90;;;;;;5032882;28;20477;-88
2022/04/27 11:11:28;;;;;;;8.43;3.45;;;12.50;99.90;;;;;;5033586;28;20045;-89
2022/04/27 11:14:03;;;;;;;7.93;3.03;;;12.70;99.90;;;;;;5031674;28;20056;-89
2022/04/27 11:16:28;;;;;;;8.27;3.40;;;12.80;99.90;;;;;;5032080;28;20041;-89
2022/04/27 11:18:59;;;;;;;7.40;2.90;;;12.90;99.90;;;;;;5033497;28;20053;-89
2022/04/27 11:21:28;;;;;;;8.02;3.17;;;12.90;99.90;;;;;;5031624;28;20731;-87
2022/04/27 11:23:55;;;;;;;8.77;3.22;;;13.00;99.50;;;;;;5030549;28;20049;-87
2022/04/27 11:26:21;;;;;;;9.55;3.50;;;12.90;99.90;;;;;;5011690;28;20057;-88
2022/04/27 11:28:47;;;;;;;8.70;3.05;;;13.00;99.90;;;;;;5011972;28;20045;-90
2022/04/27 11:31:15;;;;;;;9.65;2.90;;;13.20;99.90;;;;;;5012223;28;20044;-91
2022/04/27 11:33:41;;;;;;;10.10;2.90;;;13.40;99.90;;;;;;5013349;28;20050;-91
2022/04/27 11:36:21;;;;;;;9.93;3.20;;;13.40;99.40;;;;;;5012521;28;20559;-89
2022/04/27 11:38:47;;;;;;;8.85;3.00;;;13.20;98.70;;;;;;5012889;28;20038;-92
2022/04/27 11:41:14;;;;;;;10.18;3.80;;;13.10;98.70;;;;;;5013510;28;20045;-89
2022/04/27 11:43:40;;;;;;;9.30;3.20;;;13.00;98.80;;;;;;5012634;28;20055;-90
2022/04/27 11:46:08;;;;;;;8.48;3.40;;;13.20;98.40;;;;;;5020833;28;20125;-88
2022/04/27 11:48:33;;;;;;;9.55;3.10;;;13.80;98.90;;;;;;5038640;28;20096;-89
2022/04/27 11:51:01;;;;;;;7.90;3.25;;;14.30;98.40;;;;;;5036753;28;20041;-89
2022/04/27 11:53:27;;;;;;;7.57;3.00;;;14.40;97.00;;;;;;5033252;28;20045;-91
2022/04/27 11:55:53;;;;;;;8.95;3.15;;;14.60;96.00;;;;;;5031432;28;20144;-92
2022/04/27 11:58:23;;;;;;;8.13;3.05;;;15.30;95.30;;;;;;5032535;28;20117;-89
2022/04/27 12:00:52;;;;;;;7.53;2.75;;;14.60;94.90;;;;;;5031999;28;20037;-88
2022/04/27 12:03:18;;;;;;;7.53;2.60;;;14.80;94.00;;;;;;5032567;28;20103;-89
2022/04/27 12:05:50;;;;;;;8.05;2.80;;;14.80;93.70;;;;;;5030935;28;20045;-89
2022/04/27 12:08:20;;;;;;;9.20;3.38;;;15.20;94.00;;;;;;5037328;28;20042;-89
2022/04/27 12:10:46;;;;;;;10.68;2.88;;;15.10;93.60;;;;;;5014938;28;20054;-88
2022/04/27 12:13:14;;;;;;;10.02;3.28;;;15.30;93.80;;;;;;5033068;28;20477;-89
2022/04/27 12:15:43;;;;;;;9.32;3.00;;;15.60;94.10;;;;;;5031875;28;20041;-91
2022/04/27 12:18:25;;;;;;;10.75;2.92;;;15.80;93.20;;;;;;5032266;28;20042;-91
2022/04/27 12:20:52;;;;;;;12.95;2.90;;;16.00;91.60;;;;;;5033310;28;20041;-90
2022/04/27 12:23:34;;;;;;;7.65;2.72;;;16.10;92.20;;;;;;5031272;28;20064;-90
2022/04/27 12:26:00;;;;;;;7.30;2.70;;;15.90;91.50;;;;;;5032567;28;20092;-89
2022/04/27 12:28:40;;;;;;;7.55;3.03;;;15.90;91.20;;;;;;5031283;28;20038;-88
2022/04/27 12:31:08;;;;;;;8.85;2.50;;;16.50;91.00;;;;;;5037174;28;20048;-89
2022/04/27 12:33:43;;;;;;;7.78;2.70;;;16.20;90.30;;;;;;5015587;28;20068;-89
2022/04/27 12:39:10;;;;;;;8.98;3.03;;;16.00;89.60;;;;;;5032694;28;20046;-92
2022/04/27 12:41:41;;;;;;;8.57;2.70;;;16.20;86.90;;;;;;5034487;28;20048;-90
2022/04/27 12:44:12;;;;;;;8.90;2.58;;;16.10;89.20;;;;;;5048297;28;20049;-90
2022/04/27 12:47:04;;;;;;;8.43;2.95;;;16.50;90.20;;;;;;5032089;28;20080;-91
2022/04/27 12:49:32;;;;;;;9.80;2.65;;;16.60;87.30;;;;;;5031525;28;20045;-89
2022/04/27 12:52:16;;;;;;;7.30;2.80;;;16.80;88.10;;;;;;5028095;28;20092;-90
2022/04/27 12:54:44;;;;;;;10.65;2.95;;;16.90;86.60;;;;;;5021849;28;20104;-90
2022/04/27 12:57:09;;;;;;;10.73;3.10;;;16.80;88.50;;;;;;5016464;28;20042;-90
2022/04/27 12:59:58;;;;;;;8.98;3.10;;;17.00;87.60;;;;;;5015194;28;20041;-89
2022/04/27 13:02:34;;;;;;;8.77;2.83;;;16.70;86.10;;;;;;5017571;28;20038;-90
2022/04/27 13:05:00;;;;;;;8.32;2.72;;;16.50;87.40;;;;;;5015077;28;20060;-88
2022/04/27 13:07:26;;;;;;;9.27;2.80;;;16.80;88.50;;;;;;5014055;28;20041;-90
2022/04/27 13:12:37;;;;;;;8.60;2.70;;;17.10;84.50;;;;;;5024786;28;20077;-90
2022/04/27 13:15:04;;;;;;;7.13;2.72;;;16.70;84.60;;;;;;5015136;28;20445;-91
2022/04/27 13:17:29;;;;;;;8.07;2.60;;;16.90;85.90;;;;;;5016421;28;20045;-90